createdAt,value
2022-07-30T00:02:35.921Z,99904.50
2022-07-30T00:05:24.200Z,99899.91
2022-07-30T00:08:12.230Z,99900.84
2022-07-30T00:11:01.552Z,99894.28
2022-07-30T00:13:49.541Z,99893.56
2022-07-30T00:16:38.241Z,99907.16
2022-07-30T00:19:26.338Z,99897.72
2022-07-30T00:22:14.517Z,99899.97
2022-07-30T00:25:02.606Z,99900.44
2022-07-30T00:27:51.927Z,99893.31
2022-07-30T00:30:40.683Z,99893.81
2022-07-30T00:33:29.429Z,99892.00
2022-07-30T00:36:17.443Z,99882.56
2022-07-30T00:39:05.585Z,99880.00
2022-07-30T00:41:58.370Z,99877.72
2022-07-30T00:44:47.993Z,99889.66
2022-07-30T00:47:36.205Z,99853.16
2022-07-30T00:50:24.258Z,99880.28
2022-07-30T00:53:12.286Z,99879.19
2022-07-30T00:56:00.799Z,99873.63
2022-07-30T00:58:49.423Z,99871.38
2022-07-30T01:01:38.785Z,99876.94
2022-07-30T01:04:26.826Z,99871.91
2022-07-30T01:07:14.909Z,99868.38
2022-07-30T01:10:03.128Z,99857.38
2022-07-30T01:12:52.653Z,99861.41
2022-07-30T01:15:41.105Z,99850.41
2022-07-30T01:18:48.381Z,99858.41
2022-07-30T01:21:41.256Z,99852.06
2022-07-30T01:24:34.537Z,99863.56
2022-07-30T01:27:24.896Z,99772.72
2022-07-30T01:30:15.238Z,99850.97
2022-07-30T01:33:05.646Z,99859.66
2022-07-30T01:35:55.291Z,99863.63
2022-07-30T01:38:45.878Z,99866.81
2022-07-30T01:41:35.711Z,99863.78
2022-07-30T01:44:28.501Z,99862.66
2022-07-30T01:47:18.329Z,99867.38
2022-07-30T01:50:13.536Z,99869.78
2022-07-30T01:53:03.068Z,99880.06
2022-07-30T01:55:52.624Z,99879.69
2022-07-30T01:58:42.834Z,99878.16
2022-07-30T02:01:41.872Z,99892.06
2022-07-30T02:04:31.002Z,99894.53
2022-07-30T02:07:25.271Z,99896.13
2022-07-30T02:10:16.724Z,99898.59
2022-07-30T02:13:09.513Z,99893.44
2022-07-30T02:16:00.696Z,99890.75
2022-07-30T02:18:59.248Z,99892.41
2022-07-30T02:21:51.064Z,99897.94
2022-07-30T02:24:42.577Z,99910.56
2022-07-30T02:27:34.542Z,99879.06
2022-07-30T02:30:28.928Z,99898.78
2022-07-30T02:33:20.272Z,99903.56
2022-07-30T02:36:11.252Z,99902.75
2022-07-30T02:39:00.933Z,99908.72
2022-07-30T02:41:51.240Z,99820.91
2022-07-30T02:44:42.198Z,99912.63
2022-07-30T02:47:32.289Z,99914.56
2022-07-30T02:50:27.027Z,99915.41
2022-07-30T02:53:17.777Z,99913.41
2022-07-30T02:56:08.021Z,99922.56
2022-07-30T02:58:58.593Z,99919.41
2022-07-30T03:01:47.958Z,99913.22
2022-07-30T03:04:37.505Z,99933.69
2022-07-30T03:07:26.533Z,99933.28
2022-07-30T03:10:17.104Z,99937.59
2022-07-30T03:13:07.528Z,99930.91
2022-07-30T03:15:59.101Z,99940.06
2022-07-30T03:18:49.044Z,99935.28
2022-07-30T03:21:39.270Z,99908.56
2022-07-30T03:24:28.775Z,99939.28
2022-07-30T03:27:19.182Z,99936.94
2022-07-30T03:30:08.469Z,99942.97
2022-07-30T03:32:57.536Z,99944.13
2022-07-30T03:35:47.126Z,99941.38
2022-07-30T03:38:37.862Z,99941.03
2022-07-30T03:41:26.660Z,99950.91
2022-07-30T03:44:16.885Z,99942.22
2022-07-30T03:47:07.853Z,99944.97
2022-07-30T03:50:03.060Z,99952.50
2022-07-30T03:52:54.176Z,99949.72
2022-07-30T03:55:44.451Z,99952.50
2022-07-30T03:58:55.427Z,99941.50
2022-07-30T04:01:45.340Z,99945.41
2022-07-30T04:04:42.691Z,99952.56
2022-07-30T04:07:30.781Z,99952.19
2022-07-30T04:10:18.828Z,99958.50
2022-07-30T04:13:26.793Z,99960.84
2022-07-30T04:16:41.383Z,99928.94
2022-07-30T04:19:36.508Z,99967.94
2022-07-30T04:22:28.915Z,99968.72
2022-07-30T04:25:24.280Z,99961.66
2022-07-30T04:28:13.464Z,99969.16
2022-07-30T04:31:01.982Z,99976.25
2022-07-30T04:33:50.714Z,99977.81
2022-07-30T04:36:48.038Z,99982.94
2022-07-30T04:39:36.197Z,99975.47
2022-07-30T04:42:25.243Z,99983.72
2022-07-30T04:45:22.203Z,99988.09
2022-07-30T04:48:16.536Z,100002.38
2022-07-30T04:51:14.479Z,99999.22
2022-07-30T04:54:07.897Z,100011.50
2022-07-30T04:56:56.683Z,100007.53
2022-07-30T04:59:45.416Z,100015.44
2022-07-30T05:02:36.370Z,100015.03
2022-07-30T05:05:26.097Z,100019.38
2022-07-30T05:08:15.677Z,100013.00
2022-07-30T05:11:05.694Z,100023.69
2022-07-30T05:13:54.349Z,100020.09
2022-07-30T05:16:44.087Z,100018.13
2022-07-30T05:19:33.379Z,100024.00
2022-07-30T05:22:21.376Z,100021.59
2022-07-30T05:25:16.298Z,100027.91
2022-07-30T05:28:07.284Z,100031.91
2022-07-30T05:30:57.837Z,100034.59
2022-07-30T05:33:46.380Z,100030.97
2022-07-30T05:36:38.259Z,100045.53
2022-07-30T05:39:26.822Z,100035.59
2022-07-30T05:42:34.769Z,100042.59
2022-07-30T05:45:24.178Z,100044.13
2022-07-30T05:48:12.454Z,100037.75
2022-07-30T05:51:00.449Z,100043.25
2022-07-30T05:53:48.640Z,100041.97
2022-07-30T05:57:01.339Z,100042.22
2022-07-30T05:59:54.254Z,100033.41
2022-07-30T06:02:53.717Z,100038.81
2022-07-30T06:05:47.427Z,100037.53
2022-07-30T06:08:35.907Z,100046.06
2022-07-30T06:11:23.992Z,100045.84
2022-07-30T06:14:12.086Z,100046.88
2022-07-30T06:17:02.449Z,100047.84
2022-07-30T06:20:08.196Z,100054.03
2022-07-30T06:23:08.883Z,100057.03
2022-07-30T06:26:13.193Z,100052.81
2022-07-30T06:29:01.828Z,100061.78
2022-07-30T06:31:51.935Z,100065.97
2022-07-30T06:34:40.426Z,100063.50
2022-07-30T06:38:06.342Z,100064.59
2022-07-30T06:40:38.438Z,100074.66
2022-07-30T06:43:39.082Z,100066.88
2022-07-30T06:46:50.532Z,100066.75
2022-07-30T06:49:41.092Z,100065.00
2022-07-30T06:52:32.761Z,100082.31
2022-07-30T06:55:21.724Z,100075.91
2022-07-30T06:58:13.641Z,100083.84
2022-07-30T07:01:30.978Z,100080.44
2022-07-30T07:04:19.379Z,100087.72
2022-07-30T07:07:12.618Z,100095.34
2022-07-30T07:10:03.601Z,100085.97
2022-07-30T07:13:08.843Z,100089.88
2022-07-30T07:15:58.129Z,100096.06
2022-07-30T07:18:48.315Z,100095.69
2022-07-30T07:21:36.929Z,100099.44
2022-07-30T07:24:25.772Z,100100.31
2022-07-30T07:27:21.760Z,100106.34
2022-07-30T07:30:14.057Z,100105.97
2022-07-30T07:33:02.177Z,100103.56
2022-07-30T07:35:50.548Z,100103.56
2022-07-30T07:38:53.498Z,100096.44
2022-07-30T07:41:48.456Z,100102.63
2022-07-30T07:44:40.809Z,100099.31
2022-07-30T07:47:30.034Z,100100.78
2022-07-30T07:50:32.263Z,100103.72
2022-07-30T07:53:20.438Z,100100.41
2022-07-30T07:56:08.904Z,100085.75
2022-07-30T07:58:57.648Z,100099.97
2022-07-30T08:01:47.873Z,100098.72
2022-07-30T08:04:56.624Z,100096.66
2022-07-30T08:08:03.521Z,100100.34
2022-07-30T08:11:09.966Z,100099.97
2022-07-30T08:14:16.786Z,100108.22
2022-07-30T08:17:24.611Z,100106.91
2022-07-30T08:20:33.652Z,100098.53
2022-07-30T08:23:24.329Z,100098.88
2022-07-30T08:26:12.369Z,100102.00
2022-07-30T08:29:00.497Z,100099.50
2022-07-30T08:31:48.549Z,100093.56
2022-07-30T08:34:38.143Z,100098.03
2022-07-30T08:37:26.730Z,100099.50
2022-07-30T08:40:20.276Z,100094.84
2022-07-30T08:43:19.963Z,100081.72
2022-07-30T08:46:11.091Z,100091.56
2022-07-30T08:49:17.379Z,100075.47
2022-07-30T08:52:09.025Z,100088.88
2022-07-30T08:55:08.783Z,100090.94
2022-07-30T08:57:57.495Z,100088.56
2022-07-30T09:00:45.782Z,100089.34
2022-07-30T09:03:34.305Z,100091.09
2022-07-30T09:06:23.513Z,100081.06
2022-07-30T09:09:12.951Z,100088.78
2022-07-30T09:12:02.309Z,100081.34
2022-07-30T09:15:03.572Z,100092.25
2022-07-30T09:17:57.010Z,100056.78
2022-07-30T09:20:46.854Z,100083.75
2022-07-30T09:23:35.293Z,100085.75
2022-07-30T09:26:59.064Z,100083.47
2022-07-30T09:30:17.761Z,100079.91
2022-07-30T09:33:38.465Z,100081.19
2022-07-30T09:36:47.260Z,100082.63
2022-07-30T09:39:56.508Z,100081.25
2022-07-30T09:43:14.758Z,100081.13
2022-07-30T09:46:04.887Z,100082.78
2022-07-30T09:48:54.091Z,100086.31
2022-07-30T09:51:55.467Z,100094.84
2022-07-30T09:54:54.503Z,100081.31
2022-07-30T09:57:57.777Z,100085.66
2022-07-30T10:00:49.773Z,100090.66
2022-07-30T10:03:58.130Z,100076.47
2022-07-30T10:07:25.196Z,100079.34
2022-07-30T10:10:14.702Z,100077.66
2022-07-30T10:13:08.789Z,100061.88
2022-07-30T10:15:59.044Z,100069.22
2022-07-30T10:18:49.521Z,100068.69
2022-07-30T10:22:04.787Z,100071.44
2022-07-30T10:25:27.878Z,100067.16
2022-07-30T10:28:39.407Z,100053.41
2022-07-30T10:31:49.159Z,100054.69
2022-07-30T10:34:42.681Z,100053.03
2022-07-30T10:37:33.050Z,100046.03
2022-07-30T10:40:30.794Z,100046.16
2022-07-30T10:43:56.204Z,100048.94
2022-07-30T10:46:56.973Z,100038.41
2022-07-30T10:50:12.034Z,100036.97
2022-07-30T10:53:02.056Z,100034.34
2022-07-30T10:56:18.827Z,100043.78
2022-07-30T10:59:14.936Z,100029.78
2022-07-30T11:02:11.470Z,100028.13
2022-07-30T11:05:44.053Z,100027.72
2022-07-30T11:08:35.857Z,100029.72
2022-07-30T11:12:02.117Z,100024.38
2022-07-30T11:14:58.682Z,100017.69
2022-07-30T11:18:12.880Z,100023.13
2022-07-30T11:21:21.562Z,100021.53
2022-07-30T11:24:45.924Z,100017.97
2022-07-30T11:27:41.190Z,100019.03
2022-07-30T11:30:35.210Z,100001.94
2022-07-30T11:33:33.118Z,100019.22
2022-07-30T11:36:21.689Z,100015.34
2022-07-30T11:39:12.547Z,100011.78
2022-07-30T11:42:24.955Z,100009.69
2022-07-30T11:45:33.162Z,100004.13
2022-07-30T11:48:22.161Z,100005.78
2022-07-30T11:51:11.519Z,100014.63
2022-07-30T11:54:04.152Z,100012.78
2022-07-30T11:56:54.414Z,99998.44
2022-07-30T11:59:54.254Z,100005.81
2022-07-30T12:02:43.455Z,99999.44
2022-07-30T12:05:31.661Z,100009.13
2022-07-30T12:08:31.737Z,99997.91
2022-07-30T12:11:24.368Z,99998.78
2022-07-30T12:14:13.967Z,99995.78
2022-07-30T12:17:02.330Z,99993.44
2022-07-30T12:19:51.406Z,100005.78
2022-07-30T12:22:39.446Z,99995.66
2022-07-30T12:25:28.977Z,99983.06
2022-07-30T12:28:22.076Z,99988.09
2022-07-30T12:31:10.151Z,99999.38
2022-07-30T12:33:59.241Z,99992.38
2022-07-30T12:36:47.571Z,99982.78
2022-07-30T12:39:35.880Z,99987.78
2022-07-30T12:42:27.054Z,99982.63
2022-07-30T12:45:29.433Z,99972.31
2022-07-30T12:48:37.509Z,99971.47
2022-07-30T12:51:28.973Z,99966.66
2022-07-30T12:54:20.770Z,99966.63
2022-07-30T12:57:08.722Z,99961.47
2022-07-30T13:00:07.193Z,99956.91
2022-07-30T13:02:55.926Z,99960.94
2022-07-30T13:05:47.977Z,99956.75
2022-07-30T13:08:55.474Z,99947.44
2022-07-30T13:11:49.029Z,99892.50
2022-07-30T13:14:37.440Z,99932.31
2022-07-30T13:17:26.838Z,99941.66
2022-07-30T13:20:16.009Z,99943.91
2022-07-30T13:23:03.996Z,99941.78
2022-07-30T13:25:52.133Z,99939.94
2022-07-30T13:28:40.604Z,99934.50
2022-07-30T13:31:28.723Z,99943.19
2022-07-30T13:34:32.079Z,99938.94
2022-07-30T13:37:20.351Z,99936.78
2022-07-30T13:40:12.027Z,99928.63
2022-07-30T13:43:00.096Z,99934.41
2022-07-30T13:45:48.804Z,99925.47
2022-07-30T13:48:37.358Z,99933.00
2022-07-30T13:51:26.929Z,99931.31
2022-07-30T13:54:14.929Z,99927.31
2022-07-30T13:57:03.929Z,99922.38
2022-07-30T13:59:52.537Z,99920.81
2022-07-30T14:02:40.717Z,99928.59
2022-07-30T14:05:29.273Z,99911.44
2022-07-30T14:08:18.700Z,99911.97
2022-07-30T14:11:06.750Z,99923.28
2022-07-30T14:13:54.927Z,99911.63
2022-07-30T14:16:45.475Z,99911.13
2022-07-30T14:19:33.837Z,99908.97
2022-07-30T14:22:22.023Z,99922.56
2022-07-30T14:25:12.637Z,99907.81
2022-07-30T14:28:00.722Z,99903.88
2022-07-30T14:30:48.739Z,99907.47
2022-07-30T14:33:36.897Z,99906.41
2022-07-30T14:36:28.101Z,99911.94
2022-07-30T14:39:16.202Z,99915.81
2022-07-30T14:42:06.250Z,99910.63
2022-07-30T14:44:56.996Z,99907.03
2022-07-30T14:47:45.204Z,99901.59
2022-07-30T14:50:36.935Z,99893.13
2022-07-30T14:53:35.254Z,99900.09
2022-07-30T14:56:24.952Z,99900.88
2022-07-30T14:59:14.285Z,99896.44
2022-07-30T15:02:02.735Z,99904.94
2022-07-30T15:04:50.955Z,99905.19
2022-07-30T15:07:38.954Z,99898.94
2022-07-30T15:10:27.909Z,99905.94
2022-07-30T15:13:16.291Z,99905.50
2022-07-30T15:16:06.403Z,99902.91
2022-07-30T15:18:54.425Z,99905.47
2022-07-30T15:21:43.995Z,99904.72
2022-07-30T15:24:32.759Z,99890.75
2022-07-30T15:27:24.804Z,99908.25
2022-07-30T15:30:21.687Z,99901.97
2022-07-30T15:33:11.080Z,99913.72
2022-07-30T15:35:59.126Z,99908.53
2022-07-30T15:38:47.264Z,99901.13
2022-07-30T15:41:35.390Z,99903.94
2022-07-30T15:44:23.524Z,99902.66
2022-07-30T15:47:13.150Z,99892.81
2022-07-30T15:50:03.414Z,99898.19
2022-07-30T15:52:51.551Z,99901.81
2022-07-30T15:55:46.777Z,99897.69
2022-07-30T15:58:38.236Z,99907.53
2022-07-30T16:01:29.063Z,99918.84
2022-07-30T16:04:19.511Z,99911.38
2022-07-30T16:07:09.694Z,99918.06
2022-07-30T16:09:57.709Z,99908.28
2022-07-30T16:12:45.761Z,99904.38
2022-07-30T16:15:33.941Z,99903.34
2022-07-30T16:18:21.959Z,99908.28
2022-07-30T16:21:09.990Z,99908.81
2022-07-30T16:23:59.474Z,99910.66
2022-07-30T16:26:47.633Z,99894.94
2022-07-30T16:29:35.607Z,99902.41
2022-07-30T16:32:23.748Z,99902.19
2022-07-30T16:35:13.402Z,99902.19
2022-07-30T16:38:02.868Z,99894.69
2022-07-30T16:40:52.578Z,99910.16
2022-07-30T16:43:40.676Z,99907.81
2022-07-30T16:46:29.005Z,99901.53
2022-07-30T16:49:17.119Z,99896.31
2022-07-30T16:52:06.280Z,99904.53
2022-07-30T16:54:54.360Z,99832.25
2022-07-30T16:57:43.731Z,99899.97
2022-07-30T17:00:32.346Z,99894.16
2022-07-30T17:03:20.532Z,99899.13
2022-07-30T17:06:08.638Z,99902.19
2022-07-30T17:08:56.715Z,99899.03
2022-07-30T17:11:47.592Z,99905.22
2022-07-30T17:14:41.918Z,99906.16
2022-07-30T17:17:30.481Z,99906.53
2022-07-30T17:20:18.692Z,99907.97
2022-07-30T17:23:07.655Z,99908.56
2022-07-30T17:25:55.718Z,99914.56
2022-07-30T17:28:43.831Z,99906.69
2022-07-30T17:31:33.264Z,99908.06
2022-07-30T17:34:21.294Z,99907.69
2022-07-30T17:37:09.609Z,99911.84
2022-07-30T17:40:19.605Z,99915.91
2022-07-30T17:43:07.368Z,99920.97
2022-07-30T17:45:55.444Z,99923.97
2022-07-30T17:48:44.892Z,99929.16
2022-07-30T17:51:35.659Z,99925.09
2022-07-30T17:54:23.773Z,99928.69
2022-07-30T17:57:12.114Z,99923.06
2022-07-30T18:00:01.377Z,99929.06
2022-07-30T18:02:52.405Z,99928.78
2022-07-30T18:05:41.725Z,99931.88
2022-07-30T18:08:32.626Z,99932.94
2022-07-30T18:11:20.969Z,99937.69
2022-07-30T18:14:09.010Z,99928.88
2022-07-30T18:16:58.525Z,99956.00
2022-07-30T18:19:46.641Z,99953.88
2022-07-30T18:22:36.013Z,99953.44
2022-07-30T18:25:24.309Z,99954.34
2022-07-30T18:28:12.660Z,99954.19
2022-07-30T18:31:00.734Z,99949.78
2022-07-30T18:33:49.262Z,99963.72
2022-07-30T18:36:37.279Z,99963.34
2022-07-30T18:39:26.942Z,99962.44
2022-07-30T18:42:15.216Z,99966.63
2022-07-30T18:45:03.263Z,99972.00
2022-07-30T18:47:51.232Z,99970.03
2022-07-30T18:50:39.480Z,99971.06
2022-07-30T18:53:27.873Z,99971.22
2022-07-30T18:56:17.242Z,99965.44
2022-07-30T18:59:05.252Z,99968.03
2022-07-30T19:01:53.710Z,99971.09
2022-07-30T19:04:41.710Z,99973.09
2022-07-30T19:07:29.696Z,99971.03
2022-07-30T19:10:36.375Z,99984.38
2022-07-30T19:13:26.061Z,99991.94
2022-07-30T19:16:14.074Z,99988.38
2022-07-30T19:19:02.171Z,99988.50
2022-07-30T19:21:50.324Z,99992.00
2022-07-30T19:24:38.650Z,99995.84
2022-07-30T19:27:26.698Z,100004.03
2022-07-30T19:30:16.197Z,100001.41
2022-07-30T19:33:05.313Z,100002.91
2022-07-30T19:35:53.331Z,100010.09
2022-07-30T19:38:44.085Z,100013.50
2022-07-30T19:41:39.479Z,100016.78
2022-07-30T19:44:28.362Z,100021.66
2022-07-30T19:47:20.309Z,100027.81
2022-07-30T19:50:13.087Z,100025.16
2022-07-30T19:53:01.708Z,100039.31
2022-07-30T19:55:50.806Z,100047.47
2022-07-30T19:58:40.279Z,100049.50
2022-07-30T20:01:40.082Z,100057.97
2022-07-30T20:04:30.559Z,100051.31
2022-07-30T20:07:18.656Z,100060.19
2022-07-30T20:10:09.161Z,100057.47
2022-07-30T20:12:57.234Z,100069.47
2022-07-30T20:15:45.453Z,100070.31
2022-07-30T20:18:34.268Z,100073.94
2022-07-30T20:21:57.490Z,100071.09
2022-07-30T20:24:31.779Z,100069.16
2022-07-30T20:27:35.860Z,100073.50
2022-07-30T20:30:25.708Z,100074.44
2022-07-30T20:33:14.303Z,100082.06
2022-07-30T20:36:03.590Z,100071.00
2022-07-30T20:38:53.004Z,100075.41
2022-07-30T20:41:41.767Z,100063.97
2022-07-30T20:44:29.807Z,100067.94
2022-07-30T20:47:34.218Z,100063.97
2022-07-30T20:50:30.470Z,100062.78
2022-07-30T20:53:19.744Z,100062.34
2022-07-30T20:56:10.145Z,100067.16
2022-07-30T20:58:58.670Z,100070.34
2022-07-30T21:01:47.430Z,100067.56
2022-07-30T21:04:35.639Z,100071.50
2022-07-30T21:07:24.476Z,100067.22
2022-07-30T21:10:25.381Z,100069.94
2022-07-30T21:13:14.908Z,100081.06
2022-07-30T21:16:03.492Z,100073.78
2022-07-30T21:18:51.647Z,100081.28
2022-07-30T21:21:48.685Z,100080.88
2022-07-30T21:24:37.539Z,100077.31
2022-07-30T21:27:29.828Z,100081.28
2022-07-30T21:30:19.514Z,100074.53
2022-07-30T21:33:12.387Z,100077.66
2022-07-30T21:36:00.423Z,100077.78
2022-07-30T21:38:48.403Z,100073.50
2022-07-30T21:41:37.679Z,100073.25
2022-07-30T21:44:28.847Z,100079.69
2022-07-30T21:47:19.635Z,100078.59
2022-07-30T21:50:09.198Z,100079.16
2022-07-30T21:52:57.226Z,100078.41
2022-07-30T21:55:52.679Z,100085.69
2022-07-30T21:58:41.170Z,100087.00
2022-07-30T22:01:29.263Z,100080.75
2022-07-30T22:04:22.562Z,100088.31
2022-07-30T22:07:10.610Z,100096.75
2022-07-30T22:09:59.493Z,100099.13
2022-07-30T22:12:47.541Z,100094.06
2022-07-30T22:15:35.736Z,100099.25
2022-07-30T22:18:24.173Z,100104.47
2022-07-30T22:21:14.617Z,100101.31
2022-07-30T22:24:02.726Z,100107.78
2022-07-30T22:26:50.867Z,100109.41
2022-07-30T22:29:41.592Z,100108.59
2022-07-30T22:32:30.974Z,100107.25
2022-07-30T22:35:20.907Z,100119.38
2022-07-30T22:38:29.874Z,100115.22
2022-07-30T22:41:18.497Z,100109.53
2022-07-30T22:44:06.555Z,100111.88
2022-07-30T22:47:00.181Z,100108.22
2022-07-30T22:49:54.989Z,100103.75
2022-07-30T22:52:56.274Z,100115.25
2022-07-30T22:55:54.684Z,100105.63
2022-07-30T22:58:42.954Z,100107.94
2022-07-30T23:01:43.542Z,100113.06
2022-07-30T23:04:31.847Z,100110.38
2022-07-30T23:07:21.105Z,100106.06
2022-07-30T23:10:18.224Z,100097.41
2022-07-30T23:16:01.724Z,100099.25
2022-07-30T23:18:49.715Z,100100.38
2022-07-30T23:21:37.791Z,100089.25
2022-07-30T23:24:29.455Z,100096.69
2022-07-30T23:27:17.440Z,100092.22
2022-07-30T23:30:08.360Z,100096.06
2022-07-30T23:32:56.382Z,100085.28
2022-07-30T23:35:44.583Z,100095.91
2022-07-30T23:38:32.580Z,100090.34
2022-07-30T23:41:29.533Z,100087.16
2022-07-30T23:44:18.594Z,100092.63
2022-07-30T23:47:08.189Z,100102.50
2022-07-30T23:49:56.184Z,100097.31
2022-07-30T23:52:44.152Z,100104.00
2022-07-30T23:55:32.767Z,100099.28
2022-07-30T23:58:22.062Z,100089.84
